createdAt,value
2019-02-07T00:02:16.561Z,99.60
2019-02-07T00:04:47.903Z,119.07
2019-02-07T00:07:20.621Z,92.53
2019-02-07T00:09:50.218Z,57.30
2019-02-07T00:12:21.960Z,100.03
2019-02-07T00:14:55.465Z,62.00
2019-02-07T00:17:24.732Z,124.90
2019-02-07T00:19:58.984Z,103.73
2019-02-07T00:22:31.264Z,92.23
2019-02-07T00:25:01.057Z,92.10
2019-02-07T00:27:35.857Z,101.07
2019-02-07T00:30:09.118Z,113.27
2019-02-07T00:32:38.817Z,66.03
2019-02-07T00:35:08.696Z,65.37
2019-02-07T00:37:40.442Z,63.17
2019-02-07T00:40:13.865Z,68.10
2019-02-07T00:42:43.931Z,89.83
2019-02-07T00:45:16.867Z,74.47
2019-02-07T00:47:48.209Z,72.83
2019-02-07T00:50:18.794Z,68.43
2019-02-07T00:52:48.117Z,82.77
2019-02-07T00:55:18.122Z,82.77
2019-02-07T00:57:48.194Z,105.73
2019-02-07T01:00:21.039Z,112.13
2019-02-07T01:02:50.587Z,109.27
2019-02-07T01:05:20.806Z,69.90
2019-02-07T01:07:50.349Z,52.83
2019-02-07T01:10:24.556Z,65.80
2019-02-07T01:12:56.760Z,92.13
2019-02-07T01:15:29.439Z,116.23
2019-02-07T01:18:01.808Z,90.70
2019-02-07T01:20:36.069Z,96.10
2019-02-07T01:23:06.123Z,110.87
2019-02-07T01:25:36.917Z,71.87
2019-02-07T01:28:06.958Z,72.53
2019-02-07T01:30:38.701Z,69.00
2019-02-07T01:33:10.518Z,108.10
2019-02-07T01:35:50.703Z,103.30
2019-02-07T01:38:24.749Z,89.27
2019-02-07T01:40:55.990Z,81.70
2019-02-07T01:43:25.525Z,72.63
2019-02-07T01:45:56.096Z,74.57
2019-02-07T01:48:25.365Z,75.53
2019-02-07T01:51:20.254Z,60.50
2019-02-07T01:57:19.781Z,81.97
2019-02-07T01:59:49.014Z,85.73
2019-02-07T02:02:18.574Z,68.20
2019-02-07T02:04:47.868Z,69.50
2019-02-07T02:07:17.132Z,53.57
2019-02-07T02:09:46.561Z,59.53
2019-02-07T02:12:17.648Z,84.43
2019-02-07T02:14:46.932Z,74.37
2019-02-07T02:17:16.197Z,66.47
2019-02-07T02:19:45.436Z,77.30
2019-02-07T02:22:14.717Z,72.57
2019-02-07T02:24:45.242Z,70.63
2019-02-07T02:27:14.697Z,57.00
2019-02-07T02:29:45.363Z,68.37
2019-02-07T02:32:14.591Z,59.77
2019-02-07T02:34:45.002Z,54.63
2019-02-07T02:37:16.593Z,81.90
2019-02-07T02:39:46.112Z,60.77
2019-02-07T02:42:18.219Z,65.00
2019-02-07T02:44:53.017Z,86.73
2019-02-07T02:47:22.254Z,71.30
2019-02-07T02:49:52.372Z,61.77
2019-02-07T02:52:21.594Z,56.80
2019-02-07T02:54:53.177Z,61.37
2019-02-07T02:57:22.406Z,58.80
2019-02-07T02:59:52.391Z,55.10
2019-02-07T03:02:31.705Z,53.80
2019-02-07T03:05:18.159Z,55.13
2019-02-07T03:08:05.024Z,54.90
2019-02-07T03:10:53.032Z,61.93
2019-02-07T03:13:40.688Z,79.47
2019-02-07T03:16:34.780Z,57.43
2019-02-07T03:19:21.673Z,50.67
2019-02-07T03:22:12.659Z,44.20
2019-02-07T03:25:13.244Z,62.23
2019-02-07T03:28:13.861Z,62.70
2019-02-07T03:31:11.045Z,54.03
2019-02-07T03:34:17.351Z,63.03
2019-02-07T03:37:11.346Z,54.93
2019-02-07T03:40:02.824Z,71.30
2019-02-07T03:42:58.332Z,53.43
2019-02-07T03:46:06.501Z,67.87
2019-02-07T03:49:03.738Z,65.23
2019-02-07T03:51:57.733Z,65.50
2019-02-07T03:54:49.264Z,64.77
2019-02-07T03:57:37.462Z,61.87
2019-02-07T04:00:36.980Z,68.37
2019-02-07T04:03:30.101Z,59.57
2019-02-07T04:06:24.666Z,59.93
2019-02-07T04:09:11.506Z,56.90
2019-02-07T04:12:05.518Z,45.67
2019-02-07T04:14:52.929Z,53.30
2019-02-07T04:17:41.413Z,50.63
2019-02-07T04:20:33.542Z,47.20
2019-02-07T04:23:36.823Z,47.30
2019-02-07T04:26:29.271Z,44.23
2019-02-07T04:29:17.061Z,51.13
2019-02-07T04:32:03.743Z,44.13
2019-02-07T04:34:58.046Z,54.60
2019-02-07T04:37:46.312Z,46.97
2019-02-07T04:40:29.853Z,47.30
2019-02-07T04:43:09.363Z,44.87
2019-02-07T04:45:56.838Z,43.93
2019-02-07T04:48:41.449Z,41.03
2019-02-07T04:51:34.434Z,37.13
2019-02-07T04:54:23.976Z,46.87
2019-02-07T04:57:10.790Z,41.23
2019-02-07T05:00:01.309Z,43.57
2019-02-07T05:02:48.135Z,41.17
2019-02-07T05:05:41.599Z,43.83
2019-02-07T05:08:29.991Z,38.03
2019-02-07T05:11:24.027Z,42.97
2019-02-07T05:14:13.866Z,39.50
2019-02-07T05:17:12.514Z,40.03
2019-02-07T05:20:10.999Z,43.47
2019-02-07T05:22:50.606Z,44.07
2019-02-07T05:25:39.761Z,45.37
2019-02-07T05:28:27.286Z,39.97
2019-02-07T05:31:16.059Z,42.97
2019-02-07T05:34:10.150Z,47.57
2019-02-07T05:37:07.909Z,42.73
2019-02-07T05:39:56.679Z,43.50
2019-02-07T05:42:52.306Z,43.47
2019-02-07T05:45:49.311Z,45.53
2019-02-07T05:48:37.264Z,45.93
2019-02-07T05:51:28.758Z,47.63
2019-02-07T05:54:36.340Z,50.53
2019-02-07T05:57:25.498Z,58.67
2019-02-07T06:00:08.421Z,59.70
2019-02-07T06:03:08.884Z,51.07
2019-02-07T06:05:57.930Z,65.77
2019-02-07T06:08:46.734Z,73.13
2019-02-07T06:11:39.626Z,67.53
2019-02-07T06:14:28.871Z,69.77
2019-02-07T06:17:16.994Z,80.07
2019-02-07T06:20:07.896Z,70.53
2019-02-07T06:22:57.384Z,72.80
2019-02-07T06:26:03.848Z,73.00
2019-02-07T06:28:45.615Z,80.87
2019-02-07T06:31:42.533Z,70.03
2019-02-07T06:34:42.151Z,82.10
2019-02-07T06:37:33.244Z,74.13
2019-02-07T06:40:27.537Z,87.37
2019-02-07T06:43:09.077Z,82.17
2019-02-07T06:46:09.653Z,88.10
2019-02-07T06:49:06.817Z,79.83
2019-02-07T06:52:00.935Z,83.00
2019-02-07T06:54:52.259Z,80.53
2019-02-07T06:57:40.933Z,73.50
2019-02-07T07:00:32.769Z,85.60
2019-02-07T07:03:20.944Z,87.27
2019-02-07T07:06:12.299Z,85.87
2019-02-07T07:08:58.348Z,90.60
2019-02-07T07:11:55.200Z,79.23
2019-02-07T07:15:01.517Z,80.10
2019-02-07T07:17:48.522Z,87.57
2019-02-07T07:20:36.398Z,79.67
2019-02-07T07:23:22.961Z,94.43
2019-02-07T07:26:13.944Z,75.27
2019-02-07T07:29:05.601Z,83.07
2019-02-07T07:32:00.737Z,94.13
2019-02-07T07:34:54.784Z,99.63
2019-02-07T07:37:32.744Z,97.67
2019-02-07T07:40:14.048Z,103.37
2019-02-07T07:43:05.557Z,79.50
2019-02-07T07:46:05.788Z,75.33
2019-02-07T07:48:59.869Z,91.43
2019-02-07T07:52:07.302Z,82.37
2019-02-07T07:54:51.217Z,88.23
2019-02-07T07:57:57.781Z,78.67
2019-02-07T08:00:44.899Z,81.97
2019-02-07T08:03:36.014Z,83.67
2019-02-07T08:32:20.362Z,76.07
2019-02-07T08:35:10.331Z,79.63
2019-02-07T08:37:47.461Z,74.20
2019-02-07T08:40:37.507Z,80.37
2019-02-07T08:43:38.842Z,72.70
2019-02-07T08:46:22.871Z,71.50
2019-02-07T08:49:03.914Z,70.70
2019-02-07T08:51:51.002Z,68.97
2019-02-07T08:54:38.016Z,71.87
2019-02-07T08:57:32.415Z,65.73
2019-02-07T09:00:22.436Z,70.73
2019-02-07T09:03:09.631Z,73.13
2019-02-07T09:06:13.001Z,75.47
2019-02-07T09:09:04.023Z,65.60
2019-02-07T09:11:51.183Z,71.97
2019-02-07T09:14:38.409Z,66.23
2019-02-07T09:17:19.308Z,67.97
2019-02-07T09:20:06.578Z,69.67
2019-02-07T09:23:03.818Z,77.23
2019-02-07T09:25:59.174Z,75.97
2019-02-07T09:28:40.663Z,72.43
2019-02-07T09:31:27.994Z,63.53
2019-02-07T09:34:35.066Z,61.80
2019-02-07T09:37:21.943Z,74.60
2019-02-07T09:40:11.398Z,80.00
2019-02-07T09:43:08.608Z,78.87
2019-02-07T09:45:57.773Z,70.43
2019-02-07T09:48:47.268Z,70.00
2019-02-07T09:51:52.651Z,67.20
2019-02-07T09:54:30.594Z,75.83
2019-02-07T09:57:35.968Z,71.70
2019-02-07T10:00:24.102Z,81.63
2019-02-07T10:03:03.700Z,81.63
2019-02-07T10:05:53.267Z,78.13
2019-02-07T10:09:06.896Z,73.03
2019-02-07T10:12:01.010Z,71.30
2019-02-07T10:14:54.100Z,76.17
2019-02-07T10:18:00.538Z,72.13
2019-02-07T10:20:54.752Z,78.00
2019-02-07T10:23:41.540Z,77.03
2019-02-07T10:26:32.796Z,77.83
2019-02-07T10:29:35.987Z,67.20
2019-02-07T10:32:27.672Z,69.53
2019-02-07T10:35:23.127Z,65.80
2019-02-07T10:38:22.985Z,65.63
2019-02-07T10:41:04.996Z,71.30
2019-02-07T10:43:49.682Z,69.57
2019-02-07T10:46:49.789Z,67.10
2019-02-07T10:49:34.027Z,63.27
2019-02-07T10:52:20.832Z,60.93
2019-02-07T10:55:06.229Z,57.53
2019-02-07T10:57:54.393Z,59.10
2019-02-07T11:00:57.168Z,58.30
2019-02-07T11:03:58.483Z,53.20
2019-02-07T11:06:46.693Z,55.43
2019-02-07T11:09:33.600Z,52.03
2019-02-07T11:12:33.788Z,58.53
2019-02-07T11:15:29.011Z,54.67
2019-02-07T11:18:20.081Z,54.53
2019-02-07T11:21:26.868Z,56.53
2019-02-07T11:24:24.012Z,54.27
2019-02-07T11:27:10.957Z,53.57
2019-02-07T11:30:15.794Z,52.50
2019-02-07T11:33:09.324Z,55.63
2019-02-07T11:36:07.030Z,40.63
2019-02-07T11:38:49.093Z,46.60
2019-02-07T11:41:36.474Z,45.77
2019-02-07T11:44:27.351Z,47.60
2019-02-07T11:47:08.517Z,46.50
2019-02-07T11:49:56.177Z,53.23
2019-02-07T11:52:41.511Z,46.07
2019-02-07T11:55:33.023Z,47.90
2019-02-07T11:58:27.455Z,46.67
2019-02-07T12:01:24.318Z,51.47
2019-02-07T12:04:02.129Z,47.07
2019-02-07T12:06:53.247Z,53.07
2019-02-07T12:09:40.829Z,51.70
2019-02-07T12:12:47.185Z,52.73
2019-02-07T12:15:53.829Z,55.30
2019-02-07T12:18:40.981Z,52.27
2019-02-07T12:21:28.102Z,51.17
2019-02-07T12:24:34.427Z,52.70
2019-02-07T12:27:31.592Z,53.37
2019-02-07T12:30:18.361Z,51.67
2019-02-07T12:33:01.751Z,56.20
2019-02-07T12:35:54.141Z,56.73
2019-02-07T12:38:51.396Z,52.30
2019-02-07T12:41:39.676Z,52.43
2019-02-07T12:44:19.590Z,59.97
2019-02-07T12:47:07.735Z,53.83
2019-02-07T12:49:56.216Z,54.40
2019-02-07T12:52:53.510Z,55.03
2019-02-07T12:55:51.667Z,53.53
2019-02-07T12:58:29.038Z,63.07
2019-02-07T13:01:17.849Z,56.00
2019-02-07T13:04:04.921Z,53.10
2019-02-07T13:07:00.083Z,60.73
2019-02-07T13:09:51.327Z,59.13
2019-02-07T13:12:55.523Z,56.60
2019-02-07T13:16:04.174Z,59.13
2019-02-07T13:18:46.894Z,53.80
2019-02-07T13:21:30.906Z,58.77
2019-02-07T13:24:17.764Z,58.03
2019-02-07T13:27:06.029Z,59.70
2019-02-07T13:30:01.252Z,58.47
2019-02-07T13:32:49.558Z,57.53
2019-02-07T13:35:38.844Z,56.00
2019-02-07T13:38:26.240Z,62.87
2019-02-07T13:41:20.460Z,61.20
2019-02-07T13:44:07.344Z,60.97
2019-02-07T13:47:09.491Z,68.03
2019-02-07T13:49:56.798Z,58.83
2019-02-07T13:52:44.006Z,62.93
2019-02-07T13:55:28.086Z,57.33
2019-02-07T13:58:15.772Z,56.07
2019-02-07T14:01:03.264Z,59.70
2019-02-07T14:04:01.714Z,59.73
2019-02-07T14:06:52.096Z,59.67
2019-02-07T14:09:46.569Z,56.20
2019-02-07T14:12:41.549Z,55.90
2019-02-07T14:15:29.275Z,53.50
2019-02-07T14:18:23.943Z,53.20
2019-02-07T14:21:28.842Z,59.30
2019-02-07T14:24:23.102Z,61.10
2019-02-07T14:27:10.027Z,57.73
2019-02-07T14:29:52.589Z,56.97
2019-02-07T14:32:39.364Z,60.70
2019-02-07T14:35:28.223Z,58.77
2019-02-07T14:38:16.105Z,62.77
2019-02-07T14:41:08.403Z,58.70
2019-02-07T14:43:49.417Z,63.03
2019-02-07T14:46:37.662Z,61.57
2019-02-07T14:49:07.625Z,56.83
2019-02-07T14:51:37.966Z,62.80
2019-02-07T14:54:09.459Z,64.63
2019-02-07T14:56:39.262Z,65.57
2019-02-07T14:59:08.666Z,67.37
2019-02-07T15:01:38.872Z,68.27
2019-02-07T15:04:08.505Z,62.03
2019-02-07T15:06:38.961Z,65.50
2019-02-07T15:09:17.660Z,64.77
2019-02-07T15:11:47.220Z,66.17
2019-02-07T15:14:17.104Z,67.83
2019-02-07T15:16:46.925Z,68.20
2019-02-07T15:19:18.047Z,71.73
2019-02-07T15:21:47.743Z,66.67
2019-02-07T15:24:17.445Z,66.63
2019-02-07T15:26:48.712Z,62.00
2019-02-07T15:29:19.078Z,68.70
2019-02-07T15:31:48.414Z,68.00
2019-02-07T15:34:18.892Z,72.53
2019-02-07T15:36:50.306Z,70.83
2019-02-07T15:39:20.723Z,73.23
2019-02-07T15:41:50.488Z,90.77
2019-02-07T15:44:21.962Z,75.73
2019-02-07T15:46:51.265Z,84.13
2019-02-07T15:49:20.528Z,83.70
2019-02-07T15:51:50.458Z,85.27
2019-02-07T15:54:19.536Z,86.87
2019-02-07T15:56:50.009Z,89.20
2019-02-07T15:59:38.271Z,123.90
2019-02-07T16:02:26.794Z,97.33
2019-02-07T16:04:56.373Z,96.47
2019-02-07T16:07:25.820Z,92.60
2019-02-07T16:09:55.485Z,86.37
2019-02-07T16:12:27.563Z,97.83
2019-02-07T16:14:57.034Z,82.30
2019-02-07T16:17:26.528Z,76.80
2019-02-07T16:19:55.843Z,122.63
2019-02-07T16:22:26.150Z,96.33
2019-02-07T16:24:55.449Z,100.00
2019-02-07T16:27:25.886Z,101.13
2019-02-07T16:29:55.540Z,92.10
2019-02-07T16:32:26.553Z,108.23
2019-02-07T16:34:58.366Z,111.70
2019-02-07T16:37:29.833Z,86.60
2019-02-07T16:40:00.097Z,92.60
2019-02-07T16:42:30.350Z,84.43
2019-02-07T16:45:01.518Z,76.67
2019-02-07T16:47:32.742Z,78.93
2019-02-07T16:50:02.083Z,88.57
2019-02-07T16:52:35.004Z,88.40
2019-02-07T16:55:06.243Z,92.63
2019-02-07T16:57:36.076Z,83.03
2019-02-07T17:00:12.711Z,81.73
2019-02-07T17:02:45.254Z,85.53
2019-02-07T17:05:16.139Z,86.63
2019-02-07T17:07:47.322Z,83.63
2019-02-07T17:10:21.073Z,89.83
2019-02-07T17:12:50.443Z,87.77
2019-02-07T17:15:19.902Z,93.03
2019-02-07T17:17:49.592Z,104.23
2019-02-07T17:20:23.484Z,94.13
2019-02-07T17:22:52.808Z,118.47
2019-02-07T17:25:23.055Z,161.43
2019-02-07T17:27:53.017Z,190.67
2019-02-07T17:30:23.079Z,168.10
2019-02-07T17:32:55.259Z,118.43
2019-02-07T17:35:25.681Z,111.33
2019-02-07T17:37:55.206Z,133.40
2019-02-07T17:40:24.776Z,103.47
2019-02-07T17:42:55.187Z,121.97
2019-02-07T17:45:27.807Z,115.83
2019-02-07T17:47:57.643Z,104.00
2019-02-07T17:50:31.005Z,122.33
2019-02-07T17:53:00.699Z,141.33
2019-02-07T17:55:30.964Z,128.67
2019-02-07T17:58:01.007Z,147.70
2019-02-07T18:00:49.132Z,121.53
2019-02-07T18:03:22.268Z,114.23
2019-02-07T18:05:51.730Z,130.77
2019-02-07T18:08:21.476Z,125.43
2019-02-07T18:10:51.726Z,112.87
2019-02-07T18:13:20.964Z,151.93
2019-02-07T18:15:53.049Z,149.70
2019-02-07T18:18:23.670Z,121.77
2019-02-07T18:20:54.239Z,125.40
2019-02-07T18:23:27.413Z,121.30
2019-02-07T18:25:58.164Z,121.57
2019-02-07T18:28:27.447Z,110.43
2019-02-07T18:30:57.762Z,105.03
2019-02-07T18:33:27.337Z,100.63
2019-02-07T18:36:10.890Z,101.70
2019-02-07T18:38:41.235Z,108.43
2019-02-07T18:41:10.749Z,100.03
2019-02-07T18:43:39.974Z,113.63
2019-02-07T18:46:09.527Z,98.83
2019-02-07T18:48:39.162Z,105.97
2019-02-07T18:51:08.727Z,107.13
2019-02-07T18:53:37.961Z,107.03
2019-02-07T18:56:07.228Z,104.97
2019-02-07T18:58:39.330Z,101.77
2019-02-07T19:01:09.216Z,95.23
2019-02-07T19:03:39.182Z,99.23
2019-02-07T19:06:09.122Z,97.17
2019-02-07T19:08:38.389Z,100.53
2019-02-07T19:11:10.881Z,88.90
2019-02-07T19:13:40.443Z,99.13
2019-02-07T19:16:15.492Z,85.10
2019-02-07T19:18:45.118Z,76.00
2019-02-07T19:21:19.984Z,92.60
2019-02-07T19:23:49.228Z,85.53
2019-02-07T19:26:18.459Z,92.40
2019-02-07T19:28:47.702Z,105.17
2019-02-07T19:31:19.660Z,83.70
2019-02-07T19:33:48.903Z,80.63
2019-02-07T19:36:18.148Z,86.20
2019-02-07T19:38:47.733Z,80.93
2019-02-07T19:41:17.370Z,89.47
2019-02-07T19:43:49.713Z,92.57
2019-02-07T19:46:20.035Z,93.27
2019-02-07T19:48:51.717Z,94.87
2019-02-07T19:51:21.187Z,84.90
2019-02-07T19:53:50.435Z,91.43
2019-02-07T19:56:19.937Z,94.57
2019-02-07T19:58:49.641Z,99.33
2019-02-07T20:01:19.941Z,86.23
2019-02-07T20:03:50.016Z,86.00
2019-02-07T20:06:19.969Z,94.63
2019-02-07T20:08:50.418Z,89.60
2019-02-07T20:11:19.655Z,99.43
2019-02-07T20:13:49.487Z,97.93
2019-02-07T20:16:18.829Z,102.50
2019-02-07T20:18:48.087Z,101.57
2019-02-07T20:21:18.884Z,91.10
2019-02-07T20:23:48.151Z,95.63
2019-02-07T20:26:19.910Z,101.53
2019-02-07T20:28:51.760Z,99.27
2019-02-07T20:31:21.725Z,97.83
2019-02-07T20:33:50.990Z,98.90
2019-02-07T20:36:20.801Z,97.30
2019-02-07T20:38:50.358Z,88.50
2019-02-07T20:41:19.782Z,90.20
2019-02-07T20:43:54.026Z,89.10
2019-02-07T20:46:24.735Z,87.40
2019-02-07T20:48:54.175Z,82.60
2019-02-07T20:51:23.972Z,92.93
2019-02-07T20:53:53.235Z,93.80
2019-02-07T20:56:22.780Z,93.47
2019-02-07T20:58:52.632Z,84.57
2019-02-07T21:01:23.383Z,92.30
2019-02-07T21:03:58.602Z,98.57
2019-02-07T21:06:29.196Z,99.47
2019-02-07T21:09:00.601Z,99.17
2019-02-07T21:11:31.168Z,104.87
2019-02-07T21:14:05.447Z,89.60
2019-02-07T21:16:37.953Z,100.67
2019-02-07T21:19:08.816Z,97.57
2019-02-07T21:21:39.326Z,106.53
2019-02-07T21:24:12.456Z,94.47
2019-02-07T21:26:50.764Z,101.87
2019-02-07T21:29:20.569Z,96.63
2019-02-07T21:31:50.107Z,98.03
2019-02-07T21:34:19.597Z,101.10
2019-02-07T21:36:53.044Z,113.97
2019-02-07T21:39:23.098Z,108.70
2019-02-07T21:41:58.063Z,100.43
2019-02-07T21:44:27.326Z,105.37
2019-02-07T21:46:57.137Z,109.10
2019-02-07T21:49:29.268Z,97.07
2019-02-07T21:52:00.494Z,103.03
2019-02-07T21:54:32.440Z,91.67
2019-02-07T21:57:02.076Z,100.07
2019-02-07T21:59:32.393Z,104.50
2019-02-07T22:02:04.820Z,103.53
2019-02-07T22:04:36.681Z,100.57
2019-02-07T22:07:08.029Z,98.90
2019-02-07T22:09:38.860Z,91.30
2019-02-07T22:12:08.113Z,92.33
2019-02-07T22:14:37.544Z,84.20
2019-02-07T22:17:07.166Z,84.63
2019-02-07T22:19:36.944Z,72.47
2019-02-07T22:22:07.079Z,69.53
2019-02-07T22:24:36.313Z,72.80
2019-02-07T22:27:06.179Z,74.50
2019-02-07T22:29:35.697Z,70.07
2019-02-07T22:32:05.526Z,74.13
2019-02-07T22:34:42.757Z,70.43
2019-02-07T22:37:14.652Z,77.87
2019-02-07T22:39:50.698Z,82.63
2019-02-07T22:42:23.122Z,77.73
2019-02-07T22:44:54.755Z,78.63
2019-02-07T22:47:26.685Z,90.40
2019-02-07T22:49:59.608Z,87.67
2019-02-07T22:52:28.857Z,97.23
2019-02-07T22:54:58.101Z,106.83
2019-02-07T22:57:27.610Z,94.03
2019-02-07T22:59:58.208Z,93.37
2019-02-07T23:02:27.763Z,92.70
2019-02-07T23:04:58.932Z,101.57
2019-02-07T23:07:28.699Z,105.10
2019-02-07T23:09:59.863Z,97.30
2019-02-07T23:12:29.961Z,108.97
2019-02-07T23:15:01.211Z,113.50
2019-02-07T23:17:31.562Z,106.97
2019-02-07T23:20:09.234Z,104.07
2019-02-07T23:22:41.850Z,121.50
2019-02-07T23:25:14.082Z,134.57
2019-02-07T23:27:47.808Z,130.63
2019-02-07T23:33:46.949Z,120.87
2019-02-07T23:48:37.669Z,138.93
2019-02-07T23:51:07.989Z,142.80
2019-02-07T23:53:38.662Z,146.77
2019-02-07T23:56:09.187Z,143.07
2019-02-07T23:58:42.017Z,147.53
